Terminal Aerodrome Forecast
Issued by NWS

Home | Current Version | Previous Version | Text Only | Print | Product List | Glossary On
Versions: 1 2 3 4 5 6 7 8 9 10 11 12 13 14 15
766
FTUS42 KTBW 220549 CCA
TAFLAL
TAF COR
KLAL 220549Z 2206/2306 VRB03KT 5SM BR SCT004 SCT150
      TEMPO 2206/2210 1/4SM FG BKN003
     FM221000 VRB03KT 3SM BR SCT003 BKN015
      TEMPO 2210/2213 1SM BR BKN003
     FM221500 04004KT P6SM SCT035 SCT150
     FM221800 06005KT P6SM VCSH SCT025 SCT150
      AMD NOT SKED TIL 221200=

USA.gov is the U.S. government's official web portal to all federal, state and local government web resources and services.